createdAt,value
2022-12-31T00:01:30.735Z,88
2022-12-31T00:04:30.716Z,88.1
2022-12-31T00:10:30.748Z,88.3
2022-12-31T00:13:30.752Z,88.5
2022-12-31T00:16:30.802Z,88.6
2022-12-31T00:19:30.792Z,88.7
2022-12-31T00:22:30.778Z,88.7
2022-12-31T00:25:30.788Z,88.7
2022-12-31T00:28:30.797Z,88.7
2022-12-31T00:31:30.818Z,88.7
2022-12-31T00:34:30.832Z,88.6
2022-12-31T00:37:30.866Z,88.7
2022-12-31T00:40:30.850Z,88.5
2022-12-31T00:43:30.861Z,88.3
2022-12-31T00:46:30.899Z,88.5
2022-12-31T00:49:30.887Z,88.4
2022-12-31T00:52:30.908Z,88.5
2022-12-31T00:55:30.962Z,88.6
2022-12-31T00:58:30.933Z,88.5
2022-12-31T01:01:31.069Z,88.5
2022-12-31T01:04:30.961Z,88.7
2022-12-31T01:07:30.968Z,88.8
2022-12-31T01:10:30.990Z,88.9
2022-12-31T01:13:31.027Z,88.9
2022-12-31T01:16:31.009Z,88.8
2022-12-31T01:19:31.026Z,89
2022-12-31T01:22:31.044Z,89
2022-12-31T01:25:31.060Z,89.2
2022-12-31T01:28:31.081Z,89.3
2022-12-31T01:31:31.164Z,89.3
2022-12-31T01:34:31.095Z,89.4
2022-12-31T01:37:31.106Z,89.3
2022-12-31T01:40:31.132Z,89
2022-12-31T01:43:31.123Z,88.7
2022-12-31T01:46:31.199Z,88.4
2022-12-31T01:49:31.164Z,88.4
2022-12-31T01:52:31.144Z,88.6
2022-12-31T01:55:31.150Z,88.8
2022-12-31T01:58:31.156Z,88.7
2022-12-31T02:01:31.276Z,88.6
2022-12-31T02:04:31.173Z,88.4
2022-12-31T02:07:31.202Z,88.4
2022-12-31T02:10:31.177Z,88.4
2022-12-31T02:13:31.183Z,88.6
2022-12-31T02:16:31.193Z,88.7
2022-12-31T02:19:31.192Z,88.7
2022-12-31T02:22:31.192Z,88.7
2022-12-31T02:25:31.223Z,88.8
2022-12-31T02:28:31.209Z,89
2022-12-31T02:31:31.268Z,89.1
2022-12-31T02:34:31.218Z,89.1
2022-12-31T02:37:31.217Z,89
2022-12-31T02:40:31.214Z,89
2022-12-31T02:43:31.251Z,89.2
2022-12-31T02:46:31.287Z,89.4
2022-12-31T02:49:31.238Z,89.5
2022-12-31T02:52:31.238Z,89.9
2022-12-31T02:55:31.242Z,89.9
2022-12-31T02:58:31.245Z,90.1
2022-12-31T03:01:31.429Z,90
2022-12-31T03:04:31.256Z,90
2022-12-31T03:07:31.261Z,90
2022-12-31T03:10:31.261Z,89.9
2022-12-31T03:13:31.263Z,89.7
2022-12-31T03:16:31.283Z,89.6
2022-12-31T03:19:31.301Z,89.4
2022-12-31T03:22:31.282Z,89.2
2022-12-31T03:25:31.288Z,89.1
2022-12-31T03:28:31.285Z,88.8
2022-12-31T03:31:31.378Z,88.6
2022-12-31T03:34:31.294Z,88.4
2022-12-31T03:37:31.325Z,88.3
2022-12-31T03:40:31.321Z,88.2
2022-12-31T03:43:31.324Z,88.3
2022-12-31T03:46:31.325Z,88.4
2022-12-31T03:49:31.327Z,88.7
2022-12-31T03:52:31.326Z,89.1
2022-12-31T03:55:31.344Z,89.9
2022-12-31T03:58:31.361Z,90.3
2022-12-31T04:01:31.420Z,90.8
2022-12-31T04:04:31.338Z,91.3
2022-12-31T04:07:31.345Z,91.9
2022-12-31T04:10:31.347Z,92.4
2022-12-31T04:13:31.372Z,92.8
2022-12-31T04:16:31.402Z,92.8
2022-12-31T04:19:31.360Z,93.7
2022-12-31T04:22:31.367Z,93.6
2022-12-31T04:25:31.377Z,94
2022-12-31T04:28:31.382Z,94.1
2022-12-31T04:31:31.484Z,94.3
2022-12-31T04:34:31.392Z,94.5
2022-12-31T04:37:31.404Z,94.7
2022-12-31T04:40:31.413Z,94.9
2022-12-31T04:43:31.425Z,95.1
2022-12-31T04:46:31.419Z,95.1
2022-12-31T04:49:31.445Z,95.2
2022-12-31T04:52:33.621Z,95.3
2022-12-31T04:55:31.430Z,95.5
2022-12-31T04:58:31.434Z,95.7
2022-12-31T05:01:31.591Z,95.7
2022-12-31T05:04:31.441Z,95.9
2022-12-31T05:07:31.498Z,95.9
2022-12-31T05:10:31.447Z,96
2022-12-31T05:13:33.437Z,96
2022-12-31T05:16:31.469Z,95.9
2022-12-31T05:19:31.442Z,96
2022-12-31T05:22:31.471Z,95.9
2022-12-31T05:25:31.483Z,95.9
2022-12-31T05:28:31.453Z,95.9
2022-12-31T05:31:31.456Z,95.8
2022-12-31T05:34:31.462Z,95.6
2022-12-31T05:37:31.464Z,95.3
2022-12-31T05:40:31.466Z,94.7
2022-12-31T05:43:31.496Z,94.3
2022-12-31T05:46:31.479Z,93.7
2022-12-31T05:49:31.467Z,93.3
2022-12-31T05:52:31.471Z,93.1
2022-12-31T05:55:31.472Z,92.7
2022-12-31T05:58:31.485Z,92.7
2022-12-31T06:01:31.554Z,92.9
2022-12-31T06:04:31.492Z,93.7
2022-12-31T06:07:31.486Z,94.1
2022-12-31T06:10:31.477Z,94.2
2022-12-31T06:13:31.479Z,94.5
2022-12-31T06:16:31.608Z,94.8
2022-12-31T06:19:31.515Z,94.9
2022-12-31T06:22:31.484Z,95.2
2022-12-31T06:25:31.488Z,95.4
2022-12-31T06:28:31.498Z,95.6
2022-12-31T06:31:31.530Z,95.8
2022-12-31T06:34:31.519Z,96
2022-12-31T06:37:31.531Z,96.1
2022-12-31T06:40:31.507Z,96.4
2022-12-31T06:43:31.521Z,96.4
2022-12-31T06:46:31.533Z,96.5
2022-12-31T06:49:31.521Z,96.6
2022-12-31T06:52:31.518Z,96.7
2022-12-31T06:55:31.543Z,96.9
2022-12-31T06:58:31.522Z,96.9
2022-12-31T07:01:31.614Z,97
2022-12-31T07:04:31.524Z,97.1
2022-12-31T07:07:31.534Z,97
2022-12-31T07:10:31.527Z,97.1
2022-12-31T07:13:31.554Z,97.1
2022-12-31T07:16:31.621Z,97.1
2022-12-31T07:19:31.536Z,97.1
2022-12-31T07:22:31.531Z,97.2
2022-12-31T07:25:31.542Z,97.3
2022-12-31T07:28:31.544Z,97.2
2022-12-31T07:31:31.656Z,97.2
2022-12-31T07:34:31.550Z,97.3
2022-12-31T07:37:31.548Z,97.3
2022-12-31T07:40:31.552Z,97.3
2022-12-31T07:43:31.555Z,97.3
2022-12-31T07:46:31.605Z,97.4
2022-12-31T07:49:31.588Z,97.4
2022-12-31T07:52:31.556Z,97.5
2022-12-31T07:55:31.562Z,97.5
2022-12-31T07:58:31.566Z,97.5
2022-12-31T08:01:31.634Z,97.7
2022-12-31T08:04:31.570Z,97.6
2022-12-31T08:07:31.600Z,97.6
2022-12-31T08:10:31.582Z,97.6
2022-12-31T08:13:31.575Z,97.6
2022-12-31T08:16:31.632Z,97.6
2022-12-31T08:19:31.681Z,97.6
2022-12-31T08:22:31.592Z,97.7
2022-12-31T08:25:31.608Z,97.7
2022-12-31T08:28:31.593Z,97.7
2022-12-31T08:31:31.648Z,97.7
2022-12-31T08:34:31.592Z,97.7
2022-12-31T08:37:31.597Z,97.7
2022-12-31T08:40:31.597Z,97.8
2022-12-31T08:43:31.626Z,97.8
2022-12-31T08:46:31.603Z,97.8
2022-12-31T08:49:31.600Z,97.9
2022-12-31T08:52:31.602Z,97.9
2022-12-31T08:55:31.618Z,97.9
2022-12-31T08:58:31.611Z,97.9
2022-12-31T09:01:31.768Z,97.9
2022-12-31T09:04:31.639Z,98
2022-12-31T09:07:31.626Z,97.9
2022-12-31T09:10:31.629Z,98
2022-12-31T09:13:31.626Z,97.9
2022-12-31T09:16:31.687Z,97.9
2022-12-31T09:19:31.659Z,97.9
2022-12-31T09:22:31.639Z,97.9
2022-12-31T09:25:31.644Z,97.9
2022-12-31T09:28:31.644Z,97.9
2022-12-31T09:31:31.687Z,97.8
2022-12-31T09:34:31.648Z,97.8
2022-12-31T09:37:31.679Z,97.7
2022-12-31T09:40:31.667Z,97.8
2022-12-31T09:43:31.671Z,97.8
2022-12-31T09:46:31.674Z,97.7
2022-12-31T09:49:31.674Z,97.7
2022-12-31T09:52:31.678Z,97.6
2022-12-31T09:55:31.703Z,97.6
2022-12-31T09:58:31.683Z,97.6
2022-12-31T10:01:31.735Z,97.5
2022-12-31T10:04:31.690Z,97.5
2022-12-31T10:07:31.691Z,97.5
2022-12-31T10:10:31.696Z,97.4
2022-12-31T10:13:31.723Z,97.5
2022-12-31T10:16:31.730Z,97.5
2022-12-31T10:19:31.707Z,97.5
2022-12-31T10:22:31.711Z,97.1
2022-12-31T10:25:38.268Z,96.7
2022-12-31T10:28:31.718Z,96.5
2022-12-31T10:31:31.751Z,96.3
2022-12-31T10:34:31.731Z,96.3
2022-12-31T10:37:31.731Z,96.2
2022-12-31T10:40:31.739Z,96.1
2022-12-31T10:43:31.737Z,96
2022-12-31T10:46:31.785Z,96
2022-12-31T10:49:31.795Z,95.7
2022-12-31T10:52:34.524Z,95
2022-12-31T10:55:31.757Z,94.5
2022-12-31T10:58:31.751Z,93.9
2022-12-31T11:01:31.864Z,93.3
2022-12-31T11:04:31.767Z,93
2022-12-31T11:07:31.794Z,92.5
2022-12-31T11:10:31.778Z,92.3
2022-12-31T11:13:31.780Z,92.1
2022-12-31T11:16:31.892Z,91.9
2022-12-31T11:19:31.797Z,91.6
2022-12-31T11:22:31.787Z,91.3
2022-12-31T11:25:31.812Z,91.1
2022-12-31T11:28:31.792Z,90.8
2022-12-31T11:31:31.830Z,90.3
2022-12-31T11:34:31.796Z,90.2
2022-12-31T11:37:31.813Z,88.6
2022-12-31T11:40:31.801Z,88.3
2022-12-31T11:43:31.832Z,87.6
2022-12-31T11:46:31.822Z,87.5
2022-12-31T11:49:31.810Z,86.4
2022-12-31T11:52:31.811Z,86.3
2022-12-31T11:55:31.810Z,86.4
2022-12-31T11:58:31.819Z,85.7
2022-12-31T12:01:31.948Z,82.7
2022-12-31T12:04:31.820Z,82.6
2022-12-31T12:07:31.837Z,81.7
2022-12-31T12:10:36.344Z,81.6
2022-12-31T12:13:31.834Z,81.5
2022-12-31T12:16:31.855Z,84.2
2022-12-31T12:19:31.857Z,88.1
2022-12-31T12:22:31.834Z,89.5
2022-12-31T12:25:31.844Z,91.1
2022-12-31T12:28:31.839Z,91.7
2022-12-31T12:31:31.874Z,91.9
2022-12-31T12:34:31.857Z,92
2022-12-31T12:37:31.959Z,92.4
2022-12-31T12:40:34.276Z,92.6
2022-12-31T12:43:31.858Z,92.7
2022-12-31T12:46:31.919Z,92.7
2022-12-31T12:49:31.868Z,92.8
2022-12-31T12:52:31.873Z,93
2022-12-31T12:55:31.887Z,93.2
2022-12-31T12:58:31.867Z,93.1
2022-12-31T13:01:31.950Z,93.1
2022-12-31T13:04:34.549Z,93.1
2022-12-31T13:07:31.874Z,93.1
2022-12-31T13:10:31.873Z,93.1
2022-12-31T13:13:31.908Z,93.1
2022-12-31T13:16:31.897Z,93.1
2022-12-31T13:19:31.886Z,92.9
2022-12-31T13:22:31.877Z,92.6
2022-12-31T13:25:31.878Z,92.3
2022-12-31T13:28:31.884Z,91.8
2022-12-31T13:31:32.010Z,91.3
2022-12-31T13:34:31.910Z,90.6
2022-12-31T13:37:31.886Z,90.2
2022-12-31T13:40:31.884Z,88.6
2022-12-31T13:43:31.886Z,88.3
2022-12-31T13:46:31.892Z,87.6
2022-12-31T13:49:31.978Z,87.1
2022-12-31T13:52:31.893Z,86.8
2022-12-31T13:55:31.897Z,86
2022-12-31T13:58:31.892Z,85.2
2022-12-31T14:01:33.970Z,83.9
2022-12-31T14:04:31.919Z,83.4
2022-12-31T14:07:36.594Z,83.1
2022-12-31T14:10:31.894Z,82.7
2022-12-31T14:13:34.719Z,82.1
2022-12-31T14:16:31.920Z,81.4
2022-12-31T14:19:35.335Z,80.7
2022-12-31T14:22:31.901Z,81
2022-12-31T14:25:31.930Z,81.3
2022-12-31T14:28:31.907Z,81.2
2022-12-31T14:31:32.117Z,81.2
2022-12-31T14:34:31.923Z,81.1
2022-12-31T14:37:31.916Z,80.6
2022-12-31T14:40:31.911Z,80.1
2022-12-31T14:43:31.940Z,80.3
2022-12-31T14:46:31.913Z,80.3
2022-12-31T14:49:31.922Z,80.4
2022-12-31T14:52:31.919Z,80.3
2022-12-31T14:55:31.920Z,80.3
2022-12-31T14:58:31.916Z,80.5
2022-12-31T15:01:32.004Z,80.3
2022-12-31T15:04:31.929Z,80.7
2022-12-31T15:07:31.925Z,80.8
2022-12-31T15:10:31.943Z,80.6
2022-12-31T15:13:31.929Z,80.5
2022-12-31T15:16:31.938Z,80.3
2022-12-31T15:19:31.982Z,80.2
2022-12-31T15:22:31.950Z,80
2022-12-31T15:25:36.929Z,79.9
2022-12-31T15:28:31.964Z,79.8
2022-12-31T15:31:32.004Z,79.5
2022-12-31T15:34:31.985Z,79.1
2022-12-31T15:37:31.992Z,78.9
2022-12-31T15:40:31.977Z,78.9
2022-12-31T15:43:31.991Z,78.3
2022-12-31T15:46:32.039Z,77.8
2022-12-31T15:49:32.009Z,77.7
2022-12-31T15:52:32.008Z,77
2022-12-31T15:55:32.035Z,76.9
2022-12-31T15:58:32.018Z,76.4
2022-12-31T16:01:32.154Z,76.2
2022-12-31T16:04:32.039Z,76.2
2022-12-31T16:07:32.063Z,75.7
2022-12-31T16:10:32.045Z,75.8
2022-12-31T16:13:32.079Z,75.3
2022-12-31T16:16:32.063Z,75.6
2022-12-31T16:19:32.073Z,75.7
2022-12-31T16:22:32.071Z,75.8
2022-12-31T16:25:32.995Z,75.7
2022-12-31T16:28:32.092Z,75.7
2022-12-31T16:31:32.145Z,75.3
2022-12-31T16:34:32.117Z,75.5
2022-12-31T16:37:32.118Z,74.9
2022-12-31T16:40:32.132Z,74.3
2022-12-31T16:43:32.121Z,74.7
2022-12-31T16:46:32.210Z,74.3
2022-12-31T16:49:32.198Z,74.2
2022-12-31T16:52:32.139Z,73.9
2022-12-31T16:55:32.150Z,73.9
2022-12-31T16:58:32.166Z,73.6
2022-12-31T17:01:32.242Z,73.8
2022-12-31T17:04:32.183Z,73.5
2022-12-31T17:07:32.294Z,73.4
2022-12-31T17:10:32.207Z,73.1
2022-12-31T17:13:32.195Z,72.6
2022-12-31T17:16:32.246Z,72.5
2022-12-31T17:19:32.221Z,73
2022-12-31T17:22:36.638Z,73.4
2022-12-31T17:25:32.252Z,73.3
2022-12-31T17:28:32.235Z,73.4
2022-12-31T17:31:32.302Z,73.4
2022-12-31T17:34:32.260Z,73
2022-12-31T17:37:32.253Z,72.9
2022-12-31T17:40:53.344Z,73.1
2022-12-31T17:43:35.157Z,73.2
2022-12-31T17:46:32.326Z,73.6
2022-12-31T17:49:32.297Z,73.4
2022-12-31T17:52:32.293Z,73.7
2022-12-31T17:55:32.306Z,73.6
2022-12-31T17:58:32.313Z,73.7
2022-12-31T18:01:32.456Z,73.8
2022-12-31T18:04:32.349Z,73.9
2022-12-31T18:07:32.343Z,74.3
2022-12-31T18:10:32.350Z,74.4
2022-12-31T18:13:32.359Z,74.8
2022-12-31T18:16:32.373Z,75.4
2022-12-31T18:20:03.442Z,75.8
2022-12-31T18:22:32.393Z,75.9
2022-12-31T18:25:32.397Z,76.1
2022-12-31T18:28:32.423Z,76.1
2022-12-31T18:31:32.480Z,76.2
2022-12-31T18:34:32.441Z,76.1
2022-12-31T18:37:32.461Z,76.4
2022-12-31T18:40:32.453Z,76.7
2022-12-31T18:43:32.472Z,76.8
2022-12-31T18:46:32.467Z,76.8
2022-12-31T18:49:32.491Z,76.9
2022-12-31T18:52:32.492Z,76.8
2022-12-31T18:55:32.527Z,76.8
2022-12-31T18:58:32.508Z,76.5
2022-12-31T19:01:32.627Z,76.4
2022-12-31T19:04:32.542Z,76.3
2022-12-31T19:07:32.545Z,76.3
2022-12-31T19:10:32.550Z,76.3
2022-12-31T19:13:32.584Z,76.1
2022-12-31T19:16:32.591Z,76.2
2022-12-31T19:19:32.598Z,76.3
2022-12-31T19:22:32.593Z,76.4
2022-12-31T19:25:32.603Z,76.4
2022-12-31T19:28:32.608Z,76.4
2022-12-31T19:31:32.683Z,76.2
2022-12-31T19:34:32.639Z,76.3
2022-12-31T19:37:32.637Z,76.3
2022-12-31T19:40:32.653Z,76
2022-12-31T19:43:32.661Z,75.9
2022-12-31T19:46:32.674Z,75.9
2022-12-31T19:49:32.703Z,75.8
2022-12-31T19:52:32.678Z,75.5
2022-12-31T19:55:32.687Z,75.5
2022-12-31T19:58:32.694Z,75.3
2022-12-31T20:01:32.863Z,75.3
2022-12-31T20:04:32.720Z,75.2
2022-12-31T20:07:32.741Z,75.1
2022-12-31T20:10:32.737Z,74.9
2022-12-31T20:13:32.733Z,74.6
2022-12-31T20:16:32.751Z,74.7
2022-12-31T20:19:32.762Z,74.5
2022-12-31T20:22:32.762Z,74.7
2022-12-31T20:25:32.785Z,74.5
2022-12-31T20:28:32.773Z,74
2022-12-31T20:31:32.789Z,73.4
2022-12-31T20:34:32.792Z,72.8
2022-12-31T20:37:32.790Z,72.5
2022-12-31T20:40:32.803Z,72.4
2022-12-31T20:43:32.846Z,72.4
2022-12-31T20:46:32.944Z,72.3
2022-12-31T20:50:01.210Z,72.5
2022-12-31T20:52:32.820Z,72.2
2022-12-31T20:55:32.823Z,72
2022-12-31T20:58:32.848Z,72.1
2022-12-31T21:01:55.384Z,72.1
2022-12-31T21:04:32.967Z,71.8
2022-12-31T21:07:32.855Z,71.8
2022-12-31T21:10:32.853Z,71.9
2022-12-31T21:13:32.858Z,71.8
2022-12-31T21:16:32.865Z,71.7
2022-12-31T21:19:32.917Z,71.4
2022-12-31T21:22:32.884Z,71.2
2022-12-31T21:25:32.875Z,71
2022-12-31T21:28:32.878Z,70.5
2022-12-31T21:31:32.929Z,70.4
2022-12-31T21:34:32.905Z,70.5
2022-12-31T21:37:57.250Z,70.3
2022-12-31T21:40:32.908Z,70
2022-12-31T21:43:32.904Z,70.2
2022-12-31T21:46:32.940Z,69.8
2022-12-31T21:49:32.925Z,69.7
2022-12-31T21:52:32.916Z,69.6
2022-12-31T21:55:32.947Z,69.4
2022-12-31T21:58:32.926Z,69.1
2022-12-31T22:01:33.028Z,68.7
2022-12-31T22:05:01.231Z,68.5
2022-12-31T22:07:32.949Z,68.7
2022-12-31T22:10:37.050Z,68.7
2022-12-31T22:13:32.977Z,68.7
2022-12-31T22:16:33.029Z,68.3
2022-12-31T22:19:39.252Z,68.1
2022-12-31T22:22:32.976Z,68.2
2022-12-31T22:25:32.983Z,68.1
2022-12-31T22:28:38.541Z,68.1
2022-12-31T22:31:33.076Z,67.9
2022-12-31T22:34:32.999Z,67.7
2022-12-31T22:37:56.064Z,67.4
2022-12-31T22:40:32.993Z,67.5
2022-12-31T22:43:33.004Z,66.9
2022-12-31T22:46:33.097Z,66.9
2022-12-31T22:49:33.038Z,67
2022-12-31T22:52:33.005Z,66.9
2022-12-31T22:55:33.008Z,67.1
2022-12-31T22:58:33.012Z,67.2
2022-12-31T23:01:33.022Z,66.8
2022-12-31T23:04:33.084Z,66.4
2022-12-31T23:07:33.043Z,65.8
2022-12-31T23:10:33.020Z,65.8
2022-12-31T23:13:33.019Z,65.9
2022-12-31T23:16:33.069Z,65.5
2022-12-31T23:19:33.059Z,65.4
2022-12-31T23:22:33.023Z,64.9
2022-12-31T23:25:33.050Z,65.2
2022-12-31T23:28:33.036Z,64.9
2022-12-31T23:31:33.086Z,65.2
2022-12-31T23:34:33.053Z,65.2
2022-12-31T23:37:33.064Z,65.1
2022-12-31T23:40:33.056Z,64.9
2022-12-31T23:43:33.089Z,65.2
2022-12-31T23:46:33.120Z,65.1
2022-12-31T23:49:33.074Z,65.3
2022-12-31T23:52:33.085Z,65.5
2022-12-31T23:55:33.094Z,65.4
2022-12-31T23:58:33.116Z,65.5
